sensor_id;sensor_type;location;lat;lon;timestamp;pressure;altitude;pressure_sealevel;temperature;humidity
56456;BME280;42354;53.218;6.564;2022-10-16T00:00:16;100497.88;;;12.50;100.00
56456;BME280;42354;53.218;6.564;2022-10-16T00:02:41;100499.72;;;12.49;100.00
56456;BME280;42354;53.218;6.564;2022-10-16T00:05:06;100494.19;;;12.51;100.00
56456;BME280;42354;53.218;6.564;2022-10-16T00:07:32;100489.88;;;12.48;100.00
56456;BME280;42354;53.218;6.564;2022-10-16T00:09:57;100497.22;;;12.46;100.00
56456;BME280;42354;53.218;6.564;2022-10-16T00:12:22;100498.19;;;12.45;100.00
56456;BME280;42354;53.218;6.564;2022-10-16T00:14:48;100499.28;;;12.43;100.00
56456;BME280;42354;53.218;6.564;2022-10-16T00:17:13;100499.28;;;12.43;100.00
56456;BME280;42354;53.218;6.564;2022-10-16T00:19:38;100504.69;;;12.43;100.00
56456;BME280;42354;53.218;6.564;2022-10-16T00:22:04;100497.66;;;12.40;100.00
56456;BME280;42354;53.218;6.564;2022-10-16T00:24:32;100501.22;;;12.41;100.00
56456;BME280;42354;53.218;6.564;2022-10-16T00:26:58;100494.84;;;12.42;100.00
56456;BME280;42354;53.218;6.564;2022-10-16T00:29:23;100493.00;;;12.42;100.00
56456;BME280;42354;53.218;6.564;2022-10-16T00:31:48;100482.19;;;12.42;100.00
56456;BME280;42354;53.218;6.564;2022-10-16T00:34:15;100492.88;;;12.44;100.00
56456;BME280;42354;53.218;6.564;2022-10-16T00:36:40;100507.38;;;12.43;100.00
56456;BME280;42354;53.218;6.564;2022-10-16T00:39:05;100490.19;;;12.44;100.00
56456;BME280;42354;53.218;6.564;2022-10-16T00:41:32;100495.50;;;12.45;100.00
56456;BME280;42354;53.218;6.564;2022-10-16T00:43:59;100487.47;;;12.44;100.00
56456;BME280;42354;53.218;6.564;2022-10-16T00:46:38;100485.63;;;12.44;100.00
56456;BME280;42354;53.218;6.564;2022-10-16T00:49:13;100489.22;;;12.45;100.00
56456;BME280;42354;53.218;6.564;2022-10-16T00:54:13;100483.50;;;12.49;100.00
56456;BME280;42354;53.218;6.564;2022-10-16T00:56:40;100483.38;;;12.51;100.00
56456;BME280;42354;53.218;6.564;2022-10-16T00:59:16;100487.94;;;12.50;100.00
56456;BME280;42354;53.218;6.564;2022-10-16T01:01:43;100486.97;;;12.51;100.00
56456;BME280;42354;53.218;6.564;2022-10-16T01:04:08;100477.88;;;12.52;100.00
56456;BME280;42354;53.218;6.564;2022-10-16T01:14:48;100467.91;;;12.53;100.00
56456;BME280;42354;53.218;6.564;2022-10-16T01:17:29;100473.97;;;12.56;100.00
56456;BME280;42354;53.218;6.564;2022-10-16T01:22:44;100483.19;;;12.54;100.00
56456;BME280;42354;53.218;6.564;2022-10-16T01:25:23;100487.63;;;12.55;100.00
56456;BME280;42354;53.218;6.564;2022-10-16T01:27:51;100495.63;;;12.56;100.00
56456;BME280;42354;53.218;6.564;2022-10-16T01:30:21;100480.25;;;12.57;100.00
56456;BME280;42354;53.218;6.564;2022-10-16T01:33:02;100493.03;;;12.55;100.00
56456;BME280;42354;53.218;6.564;2022-10-16T01:35:35;100498.53;;;12.53;100.00
56456;BME280;42354;53.218;6.564;2022-10-16T01:38:25;100494.09;;;12.52;100.00
56456;BME280;42354;53.218;6.564;2022-10-16T01:40:58;100490.41;;;12.53;100.00
56456;BME280;42354;53.218;6.564;2022-10-16T01:43:53;100491.50;;;12.51;100.00
56456;BME280;42354;53.218;6.564;2022-10-16T01:46:21;100493.88;;;12.55;100.00
56456;BME280;42354;53.218;6.564;2022-10-16T01:48:48;100492.91;;;12.56;100.00
56456;BME280;42354;53.218;6.564;2022-10-16T01:51:16;100501.69;;;12.60;100.00
56456;BME280;42354;53.218;6.564;2022-10-16T01:53:47;100495.19;;;12.63;100.00
56456;BME280;42354;53.218;6.564;2022-10-16T01:56:14;100499.53;;;12.65;100.00
56456;BME280;42354;53.218;6.564;2022-10-16T01:58:53;100507.53;;;12.67;100.00
56456;BME280;42354;53.218;6.564;2022-10-16T02:01:23;100503.88;;;12.68;100.00
56456;BME280;42354;53.218;6.564;2022-10-16T02:03:53;100491.31;;;12.67;100.00
56456;BME280;42354;53.218;6.564;2022-10-16T02:06:19;100498.47;;;12.68;100.00
56456;BME280;42354;53.218;6.564;2022-10-16T02:08:46;100503.00;;;12.67;100.00
56456;BME280;42354;53.218;6.564;2022-10-16T02:11:11;100508.31;;;12.69;100.00
56456;BME280;42354;53.218;6.564;2022-10-16T02:13:59;100505.72;;;12.67;100.00
56456;BME280;42354;53.218;6.564;2022-10-16T02:16:36;100498.34;;;12.69;100.00
56456;BME280;42354;53.218;6.564;2022-10-16T02:19:02;100487.84;;;12.65;100.00
56456;BME280;42354;53.218;6.564;2022-10-16T02:21:30;100492.63;;;12.74;100.00
56456;BME280;42354;53.218;6.564;2022-10-16T02:29:06;100504.84;;;12.79;100.00
56456;BME280;42354;53.218;6.564;2022-10-16T02:31:36;100502.16;;;12.79;100.00
56456;BME280;42354;53.218;6.564;2022-10-16T02:34:05;100515.56;;;12.81;100.00
56456;BME280;42354;53.218;6.564;2022-10-16T02:36:34;100502.81;;;12.83;100.00
56456;BME280;42354;53.218;6.564;2022-10-16T02:39:01;100504.53;;;12.84;100.00
56456;BME280;42354;53.218;6.564;2022-10-16T02:41:29;100507.13;;;12.85;100.00
56456;BME280;42354;53.218;6.564;2022-10-16T02:43:54;100502.69;;;12.84;100.00
56456;BME280;42354;53.218;6.564;2022-10-16T02:46:20;100504.53;;;12.84;100.00
56456;BME280;42354;53.218;6.564;2022-10-16T02:48:46;100514.41;;;12.85;100.00
56456;BME280;42354;53.218;6.564;2022-10-16T02:51:11;100508.97;;;12.85;100.00
56456;BME280;42354;53.218;6.564;2022-10-16T02:53:36;100514.28;;;12.86;100.00
56456;BME280;42354;53.218;6.564;2022-10-16T02:56:02;100519.47;;;12.89;100.00
56456;BME280;42354;53.218;6.564;2022-10-16T02:58:27;100525.66;;;12.91;100.00
56456;BME280;42354;53.218;6.564;2022-10-16T03:00:53;100517.66;;;12.90;100.00
56456;BME280;42354;53.218;6.564;2022-10-16T03:03:19;100514.72;;;12.93;100.00
56456;BME280;42354;53.218;6.564;2022-10-16T03:05:45;100512.03;;;12.93;100.00
56456;BME280;42354;53.218;6.564;2022-10-16T03:08:13;100528.25;;;12.93;100.00
56456;BME280;42354;53.218;6.564;2022-10-16T03:10:39;100533.69;;;12.93;100.00
56456;BME280;42354;53.218;6.564;2022-10-16T03:13:04;100521.00;;;12.94;100.00
56456;BME280;42354;53.218;6.564;2022-10-16T03:15:30;100528.38;;;12.91;100.00
56456;BME280;42354;53.218;6.564;2022-10-16T03:17:58;100519.28;;;12.93;100.00
56456;BME280;42354;53.218;6.564;2022-10-16T03:20:24;100522.84;;;12.93;100.00
56456;BME280;42354;53.218;6.564;2022-10-16T03:22:50;100510.38;;;12.90;100.00
56456;BME280;42354;53.218;6.564;2022-10-16T03:25:15;100510.19;;;12.94;100.00
56456;BME280;42354;53.218;6.564;2022-10-16T03:27:41;100522.63;;;12.96;100.00
56456;BME280;42354;53.218;6.564;2022-10-16T03:30:07;100522.41;;;12.99;100.00
56456;BME280;42354;53.218;6.564;2022-10-16T03:32:32;100535.19;;;12.97;100.00
56456;BME280;42354;53.218;6.564;2022-10-16T03:34:57;100529.78;;;12.97;100.00
56456;BME280;42354;53.218;6.564;2022-10-16T03:37:23;100526.09;;;12.98;100.00
56456;BME280;42354;53.218;6.564;2022-10-16T03:39:48;100533.13;;;13.01;100.00
56456;BME280;42354;53.218;6.564;2022-10-16T03:42:14;100536.06;;;12.98;100.00
56456;BME280;42354;53.218;6.564;2022-10-16T03:44:39;100524.47;;;12.96;100.00
56456;BME280;42354;53.218;6.564;2022-10-16T03:47:04;100533.69;;;12.93;100.00
56456;BME280;42354;53.218;6.564;2022-10-16T03:49:30;100542.00;;;12.90;100.00
56456;BME280;42354;53.218;6.564;2022-10-16T03:51:55;100543.41;;;12.83;100.00
56456;BME280;42354;53.218;6.564;2022-10-16T03:54:20;100543.41;;;12.83;100.00
56456;BME280;42354;53.218;6.564;2022-10-16T03:56:47;100546.13;;;12.83;100.00
56456;BME280;42354;53.218;6.564;2022-10-16T03:59:13;100548.72;;;12.84;100.00
56456;BME280;42354;53.218;6.564;2022-10-16T04:01:38;100548.81;;;12.83;100.00
56456;BME280;42354;53.218;6.564;2022-10-16T04:04:03;100546.44;;;12.78;100.00
56456;BME280;42354;53.218;6.564;2022-10-16T04:06:29;100556.50;;;12.76;100.00
56456;BME280;42354;53.218;6.564;2022-10-16T04:08:54;100546.84;;;12.72;100.00
56456;BME280;42354;53.218;6.564;2022-10-16T04:11:21;100537.22;;;12.68;100.00
56456;BME280;42354;53.218;6.564;2022-10-16T04:13:46;100549.13;;;12.66;100.00
56456;BME280;42354;53.218;6.564;2022-10-16T04:16:11;100558.41;;;12.62;100.00
56456;BME280;42354;53.218;6.564;2022-10-16T04:18:36;100562.19;;;12.59;100.00
56456;BME280;42354;53.218;6.564;2022-10-16T04:21:05;100567.81;;;12.56;100.00
56456;BME280;42354;53.218;6.564;2022-10-16T04:23:31;100564.56;;;12.51;100.00
56456;BME280;42354;53.218;6.564;2022-10-16T04:25:57;100569.31;;;12.47;100.00
56456;BME280;42354;53.218;6.564;2022-10-16T04:28:22;100572.97;;;12.46;100.00
56456;BME280;42354;53.218;6.564;2022-10-16T04:30:48;100572.97;;;12.46;100.00
56456;BME280;42354;53.218;6.564;2022-10-16T04:33:13;100574.72;;;12.47;100.00
56456;BME280;42354;53.218;6.564;2022-10-16T04:35:40;100589.97;;;12.48;100.00
56456;BME280;42354;53.218;6.564;2022-10-16T04:38:05;100592.56;;;12.50;100.00
56456;BME280;42354;53.218;6.564;2022-10-16T04:40:31;100589.97;;;12.48;100.00
56456;BME280;42354;53.218;6.564;2022-10-16T04:42:59;100595.19;;;12.51;100.00
56456;BME280;42354;53.218;6.564;2022-10-16T04:45:24;100595.28;;;12.50;100.00
56456;BME280;42354;53.218;6.564;2022-10-16T04:47:50;100598.97;;;12.49;100.00
56456;BME280;42354;53.218;6.564;2022-10-16T04:50:15;100603.28;;;12.51;100.00
56456;BME280;42354;53.218;6.564;2022-10-16T04:52:41;100611.22;;;12.54;100.00
56456;BME280;42354;53.218;6.564;2022-10-16T04:55:06;100616.41;;;12.57;100.00
56456;BME280;42354;53.218;6.564;2022-10-16T04:57:32;100623.34;;;12.62;100.00
56456;BME280;42354;53.218;6.564;2022-10-16T05:00:00;100615.91;;;12.65;100.00
56456;BME280;42354;53.218;6.564;2022-10-16T05:02:26;100618.50;;;12.67;100.00
56456;BME280;42354;53.218;6.564;2022-10-16T05:04:51;100614.81;;;12.68;100.00
56456;BME280;42354;53.218;6.564;2022-10-16T05:07:17;100603.03;;;12.69;100.00
56456;BME280;42354;53.218;6.564;2022-10-16T05:09:42;100606.59;;;12.69;100.00
56456;BME280;42354;53.218;6.564;2022-10-16T05:12:07;100618.09;;;12.73;100.00
56456;BME280;42354;53.218;6.564;2022-10-16T05:14:33;100624.28;;;12.75;100.00
56456;BME280;42354;53.218;6.564;2022-10-16T05:16:59;100620.69;;;12.74;100.00
56456;BME280;42354;53.218;6.564;2022-10-16T05:19:25;100627.94;;;12.74;100.00
56456;BME280;42354;53.218;6.564;2022-10-16T05:21:50;100620.69;;;12.74;100.00
56456;BME280;42354;53.218;6.564;2022-10-16T05:24:16;100626.22;;;12.73;100.00
56456;BME280;42354;53.218;6.564;2022-10-16T05:26:41;100610.94;;;12.72;100.00
56456;BME280;42354;53.218;6.564;2022-10-16T05:29:07;100616.47;;;12.70;100.00
56456;BME280;42354;53.218;6.564;2022-10-16T05:31:32;100611.16;;;12.69;100.00
56456;BME280;42354;53.218;6.564;2022-10-16T05:33:59;100618.31;;;12.70;100.00
56456;BME280;42354;53.218;6.564;2022-10-16T05:36:25;100619.28;;;12.69;100.00
56456;BME280;42354;53.218;6.564;2022-10-16T05:38:50;100615.81;;;12.67;100.00
56456;BME280;42354;53.218;6.564;2022-10-16T05:41:16;100620.34;;;12.66;100.00
56456;BME280;42354;53.218;6.564;2022-10-16T05:43:47;100623.16;;;12.65;100.00
56456;BME280;42354;53.218;6.564;2022-10-16T05:46:13;100612.44;;;12.63;100.00
56456;BME280;42354;53.218;6.564;2022-10-16T05:48:38;100619.69;;;12.63;100.00
56456;BME280;42354;53.218;6.564;2022-10-16T05:51:06;100619.78;;;12.61;100.00
56456;BME280;42354;53.218;6.564;2022-10-16T05:53:35;100618.81;;;12.62;100.00
56456;BME280;42354;53.218;6.564;2022-10-16T05:56:01;100627.91;;;12.61;100.00
56456;BME280;42354;53.218;6.564;2022-10-16T05:58:31;100636.88;;;12.62;100.00
56456;BME280;42354;53.218;6.564;2022-10-16T06:01:06;100630.59;;;12.61;100.00
56456;BME280;42354;53.218;6.564;2022-10-16T06:03:33;100632.34;;;12.62;100.00
56456;BME280;42354;53.218;6.564;2022-10-16T06:05:59;100650.41;;;12.62;100.00
56456;BME280;42354;53.218;6.564;2022-10-16T06:08:24;100639.59;;;12.62;100.00
56456;BME280;42354;53.218;6.564;2022-10-16T06:11:03;100652.47;;;12.58;100.00
56456;BME280;42354;53.218;6.564;2022-10-16T06:13:33;100659.59;;;12.59;100.00
56456;BME280;42354;53.218;6.564;2022-10-16T06:16:00;100671.31;;;12.59;100.00
56456;BME280;42354;53.218;6.564;2022-10-16T06:18:26;100659.59;;;12.59;100.00
56456;BME280;42354;53.218;6.564;2022-10-16T06:20:53;100657.78;;;12.59;100.00
56456;BME280;42354;53.218;6.564;2022-10-16T06:23:19;100654.88;;;12.63;100.00
56456;BME280;42354;53.218;6.564;2022-10-16T06:25:45;100660.06;;;12.66;100.00
56456;BME280;42354;53.218;6.564;2022-10-16T06:28:10;100651.66;;;12.70;100.00
56456;BME280;42354;53.218;6.564;2022-10-16T06:30:36;100659.56;;;12.73;100.00
56456;BME280;42354;53.218;6.564;2022-10-16T06:33:01;100657.50;;;12.77;100.00
56456;BME280;42354;53.218;6.564;2022-10-16T06:35:27;100655.47;;;12.80;100.00
56456;BME280;42354;53.218;6.564;2022-10-16T06:37:54;100677.78;;;12.84;100.00
56456;BME280;42354;53.218;6.564;2022-10-16T06:40:19;100671.19;;;12.88;100.00
56456;BME280;42354;53.218;6.564;2022-10-16T06:42:45;100674.66;;;12.90;100.00
56456;BME280;42354;53.218;6.564;2022-10-16T06:45:10;100673.59;;;12.93;100.00
56456;BME280;42354;53.218;6.564;2022-10-16T06:47:36;100674.25;;;12.96;100.00
56456;BME280;42354;53.218;6.564;2022-10-16T06:50:02;100685.97;;;12.97;100.00
56456;BME280;42354;53.218;6.564;2022-10-16T06:52:28;100686.41;;;13.03;100.00
56456;BME280;42354;53.218;6.564;2022-10-16T06:54:54;100693.25;;;13.09;100.00
56456;BME280;42354;53.218;6.564;2022-10-16T06:57:20;100694.78;;;13.13;100.00
56456;BME280;42354;53.218;6.564;2022-10-16T06:59:45;100697.22;;;13.17;100.00
56456;BME280;42354;53.218;6.564;2022-10-16T07:02:11;100695.25;;;13.19;100.00
56456;BME280;42354;53.218;6.564;2022-10-16T07:04:36;100708.50;;;13.24;100.00
56456;BME280;42354;53.218;6.564;2022-10-16T07:07:02;100707.53;;;13.25;100.00
56456;BME280;42354;53.218;6.564;2022-10-16T07:09:27;100711.97;;;13.26;100.00
56456;BME280;42354;53.218;6.564;2022-10-16T07:11:53;100723.47;;;13.30;100.00
56456;BME280;42354;53.218;6.564;2022-10-16T07:14:20;100727.13;;;13.29;100.00
56456;BME280;42354;53.218;6.564;2022-10-16T07:16:47;100739.72;;;13.30;100.00
56456;BME280;42354;53.218;6.564;2022-10-16T07:19:14;100738.75;;;13.31;100.00
56456;BME280;42354;53.218;6.564;2022-10-16T07:21:41;100753.16;;;13.31;100.00
56456;BME280;42354;53.218;6.564;2022-10-16T07:24:11;100762.81;;;13.35;100.00
56456;BME280;42354;53.218;6.564;2022-10-16T07:26:38;100765.31;;;13.38;100.00
56456;BME280;42354;53.218;6.564;2022-10-16T07:29:15;100769.66;;;13.41;100.00
56456;BME280;42354;53.218;6.564;2022-10-16T07:31:43;100770.53;;;13.41;100.00
56456;BME280;42354;53.218;6.564;2022-10-16T07:34:13;100773.78;;;13.46;100.00
56456;BME280;42354;53.218;6.564;2022-10-16T07:36:39;100794.38;;;13.49;100.00
56456;BME280;42354;53.218;6.564;2022-10-16T07:39:04;100797.66;;;13.54;100.00
56456;BME280;42354;53.218;6.564;2022-10-16T07:41:30;100795.72;;;13.56;100.00
56456;BME280;42354;53.218;6.564;2022-10-16T07:43:58;100785.53;;;13.60;100.00
56456;BME280;42354;53.218;6.564;2022-10-16T07:46:25;100800.59;;;13.64;100.00
56456;BME280;42354;53.218;6.564;2022-10-16T07:48:51;100798.66;;;13.66;100.00
56456;BME280;42354;53.218;6.564;2022-10-16T07:51:19;100804.94;;;13.66;100.00
56456;BME280;42354;53.218;6.564;2022-10-16T07:53:45;100788.13;;;13.61;100.00
56456;BME280;42354;53.218;6.564;2022-10-16T07:56:12;100805.38;;;13.60;100.00
56456;BME280;42354;53.218;6.564;2022-10-16T07:58:38;100813.50;;;13.60;100.00
56456;BME280;42354;53.218;6.564;2022-10-16T08:01:05;100806.34;;;13.59;100.00
56456;BME280;42354;53.218;6.564;2022-10-16T08:03:32;100801.78;;;13.60;100.00
56456;BME280;42354;53.218;6.564;2022-10-16T08:05:58;100807.41;;;13.57;100.00
56456;BME280;42354;53.218;6.564;2022-10-16T08:08:24;100807.63;;;13.53;100.00
56456;BME280;42354;53.218;6.564;2022-10-16T08:10:49;100804.72;;;13.57;100.00
56456;BME280;42354;53.218;6.564;2022-10-16T08:13:15;100821.84;;;13.57;100.00
56456;BME280;42354;53.218;6.564;2022-10-16T08:15:44;100824.13;;;13.63;100.00
56456;BME280;42354;53.218;6.564;2022-10-16T08:18:10;100828.94;;;13.72;100.00
56456;BME280;42354;53.218;6.564;2022-10-16T08:20:36;100839.91;;;13.83;100.00
56456;BME280;42354;53.218;6.564;2022-10-16T08:23:01;100839.16;;;13.94;100.00
56456;BME280;42354;53.218;6.564;2022-10-16T08:25:28;100845.47;;;14.07;100.00
56456;BME280;42354;53.218;6.564;2022-10-16T08:27:53;100862.53;;;14.22;100.00
56456;BME280;42354;53.218;6.564;2022-10-16T08:30:21;100871.66;;;14.34;100.00
56456;BME280;42354;53.218;6.564;2022-10-16T08:32:46;100880.38;;;14.51;100.00
56456;BME280;42354;53.218;6.564;2022-10-16T08:35:15;100875.50;;;14.69;100.00
56456;BME280;42354;53.218;6.564;2022-10-16T08:37:42;100872.75;;;14.95;100.00
56456;BME280;42354;53.218;6.564;2022-10-16T08:40:17;100881.69;;;15.21;100.00
56456;BME280;42354;53.218;6.564;2022-10-16T08:50:31;100888.56;;;15.87;97.84
56456;BME280;42354;53.218;6.564;2022-10-16T08:52:57;100894.91;;;15.98;97.05
56456;BME280;42354;53.218;6.564;2022-10-16T08:55:30;100904.69;;;16.01;95.70
56456;BME280;42354;53.218;6.564;2022-10-16T08:58:28;100904.19;;;15.96;94.40
56456;BME280;42354;53.218;6.564;2022-10-16T09:00:57;100913.13;;;16.09;94.42
56456;BME280;42354;53.218;6.564;2022-10-16T09:09:08;100927.22;;;16.03;92.74
56456;BME280;42354;53.218;6.564;2022-10-16T09:16:56;100945.78;;;16.09;90.41
56456;BME280;42354;53.218;6.564;2022-10-16T09:19:38;100940.47;;;16.07;91.60
56456;BME280;42354;53.218;6.564;2022-10-16T09:22:17;100952.91;;;16.23;91.27
56456;BME280;42354;53.218;6.564;2022-10-16T09:24:43;100955.97;;;16.18;90.32
56456;BME280;42354;53.218;6.564;2022-10-16T09:27:11;100948.78;;;16.17;91.07
56456;BME280;42354;53.218;6.564;2022-10-16T09:29:37;100965.28;;;16.27;90.88
56456;BME280;42354;53.218;6.564;2022-10-16T09:32:13;100965.91;;;16.30;89.78
56456;BME280;42354;53.218;6.564;2022-10-16T09:34:48;100964.94;;;16.31;89.05
56456;BME280;42354;53.218;6.564;2022-10-16T09:37:18;100980.03;;;16.35;89.55
56456;BME280;42354;53.218;6.564;2022-10-16T09:39:52;100983.03;;;16.43;89.78
56456;BME280;42354;53.218;6.564;2022-10-16T09:42:20;101002.59;;;16.49;89.38
56456;BME280;42354;53.218;6.564;2022-10-16T09:44:49;100984.00;;;16.66;88.49
56456;BME280;42354;53.218;6.564;2022-10-16T09:47:25;100983.94;;;16.90;87.72
56456;BME280;42354;53.218;6.564;2022-10-16T09:50:24;100993.97;;;17.01;85.07
56456;BME280;42354;53.218;6.564;2022-10-16T09:53:02;100993.84;;;17.02;85.70
56456;BME280;42354;53.218;6.564;2022-10-16T09:55:27;100989.53;;;17.11;84.66
56456;BME280;42354;53.218;6.564;2022-10-16T09:57:54;100996.94;;;16.98;83.69
56456;BME280;42354;53.218;6.564;2022-10-16T10:00:20;100996.09;;;16.97;84.59
56456;BME280;42354;53.218;6.564;2022-10-16T10:02:46;100999.81;;;17.19;83.42
56456;BME280;42354;53.218;6.564;2022-10-16T10:05:27;100996.59;;;17.14;82.20
56456;BME280;42354;53.218;6.564;2022-10-16T10:08:01;100991.38;;;16.99;82.55
56456;BME280;42354;53.218;6.564;2022-10-16T10:10:32;101007.97;;;16.96;83.12
56456;BME280;42354;53.218;6.564;2022-10-16T10:12:59;101001.16;;;17.02;83.02
56456;BME280;42354;53.218;6.564;2022-10-16T10:15:27;101011.59;;;17.08;81.87
56456;BME280;42354;53.218;6.564;2022-10-16T10:17:56;101008.38;;;17.14;81.71
56456;BME280;42354;53.218;6.564;2022-10-16T10:20:32;101005.91;;;17.33;81.51
56456;BME280;42354;53.218;6.564;2022-10-16T10:23:00;101009.84;;;17.52;80.99
56456;BME280;42354;53.218;6.564;2022-10-16T10:28:27;101029.69;;;17.43;78.28
56456;BME280;42354;53.218;6.564;2022-10-16T10:34:02;101040.50;;;17.78;76.70
56456;BME280;42354;53.218;6.564;2022-10-16T10:36:39;101033.66;;;17.94;76.04
56456;BME280;42354;53.218;6.564;2022-10-16T10:39:22;101048.38;;;18.03;73.74
56456;BME280;42354;53.218;6.564;2022-10-16T10:42:00;101063.78;;;18.04;73.63
56456;BME280;42354;53.218;6.564;2022-10-16T10:45:11;101035.13;;;17.98;72.01
56456;BME280;42354;53.218;6.564;2022-10-16T10:50:37;101071.75;;;17.74;71.71
56456;BME280;42354;53.218;6.564;2022-10-16T10:53:21;101058.44;;;17.58;73.52
56456;BME280;42354;53.218;6.564;2022-10-16T10:55:56;101067.38;;;17.60;73.43
56456;BME280;42354;53.218;6.564;2022-10-16T10:58:27;101065.16;;;17.43;72.29
56456;BME280;42354;53.218;6.564;2022-10-16T11:01:13;101077.41;;;17.26;72.37
56456;BME280;42354;53.218;6.564;2022-10-16T11:06:48;101077.66;;;17.45;70.65
56456;BME280;42354;53.218;6.564;2022-10-16T11:09:26;101080.03;;;17.61;70.25
56456;BME280;42354;53.218;6.564;2022-10-16T11:12:01;101089.97;;;17.84;69.63
56456;BME280;42354;53.218;6.564;2022-10-16T11:14:38;101093.16;;;18.12;69.21
56456;BME280;42354;53.218;6.564;2022-10-16T11:17:26;101093.81;;;18.04;64.68
56456;BME280;42354;53.218;6.564;2022-10-16T11:19:58;101086.59;;;18.03;64.70
56456;BME280;42354;53.218;6.564;2022-10-16T11:22:47;101089.31;;;18.14;62.56
56456;BME280;42354;53.218;6.564;2022-10-16T11:25:18;101085.88;;;18.44;63.32
56456;BME280;42354;53.218;6.564;2022-10-16T11:27:56;101102.53;;;18.41;63.69
56456;BME280;42354;53.218;6.564;2022-10-16T11:30:30;101094.22;;;18.43;62.85
56456;BME280;42354;53.218;6.564;2022-10-16T11:35:44;101106.56;;;18.69;61.36
56456;BME280;42354;53.218;6.564;2022-10-16T11:41:27;101120.22;;;18.69;60.47
56456;BME280;42354;53.218;6.564;2022-10-16T11:47:33;101115.78;;;18.57;58.28
56456;BME280;42354;53.218;6.564;2022-10-16T11:50:17;101116.50;;;18.59;58.92
56456;BME280;42354;53.218;6.564;2022-10-16T11:55:37;101104.13;;;18.44;59.41
56456;BME280;42354;53.218;6.564;2022-10-16T11:58:12;101112.44;;;18.53;59.17
56456;BME280;42354;53.218;6.564;2022-10-16T12:04:30;101137.72;;;18.12;60.95
56456;BME280;42354;53.218;6.564;2022-10-16T12:07:09;101145.19;;;17.99;61.06
56456;BME280;42354;53.218;6.564;2022-10-16T12:09:38;101151.00;;;17.83;60.34
56456;BME280;42354;53.218;6.564;2022-10-16T12:12:27;101157.56;;;17.69;59.99
56456;BME280;42354;53.218;6.564;2022-10-16T12:17:38;101141.41;;;17.55;58.70
56456;BME280;42354;53.218;6.564;2022-10-16T12:22:47;101185.09;;;17.66;58.87
56456;BME280;42354;53.218;6.564;2022-10-16T12:27:55;101186.13;;;17.88;59.19
56456;BME280;42354;53.218;6.564;2022-10-16T12:30:23;101194.41;;;17.86;59.50
56456;BME280;42354;53.218;6.564;2022-10-16T12:32:56;101184.75;;;17.82;59.94
56456;BME280;42354;53.218;6.564;2022-10-16T12:35:27;101189.56;;;17.67;60.77
56456;BME280;42354;53.218;6.564;2022-10-16T12:37:53;101195.84;;;17.57;61.47
56456;BME280;42354;53.218;6.564;2022-10-16T12:40:26;101190.50;;;17.55;62.18
56456;BME280;42354;53.218;6.564;2022-10-16T12:42:53;101197.28;;;17.38;62.65
56456;BME280;42354;53.218;6.564;2022-10-16T12:45:31;101191.34;;;17.45;62.76
56456;BME280;42354;53.218;6.564;2022-10-16T12:47:58;101200.66;;;17.53;62.22
56456;BME280;42354;53.218;6.564;2022-10-16T12:52:53;101208.22;;;17.50;63.43
56456;BME280;42354;53.218;6.564;2022-10-16T12:55:20;101218.53;;;17.57;64.17
56456;BME280;42354;53.218;6.564;2022-10-16T13:00:28;101225.06;;;17.44;63.57
56456;BME280;42354;53.218;6.564;2022-10-16T13:03:23;101223.78;;;17.36;63.47
56456;BME280;42354;53.218;6.564;2022-10-16T13:05:59;101226.63;;;17.35;63.36
56456;BME280;42354;53.218;6.564;2022-10-16T13:22:19;101252.00;;;17.00;59.56
56456;BME280;42354;53.218;6.564;2022-10-16T13:25:08;101258.03;;;16.93;60.16
56456;BME280;42354;53.218;6.564;2022-10-16T13:28:04;101263.44;;;16.82;61.88
56456;BME280;42354;53.218;6.564;2022-10-16T13:30:36;101267.66;;;16.86;61.00
56456;BME280;42354;53.218;6.564;2022-10-16T13:33:20;101267.03;;;16.82;61.92
56456;BME280;42354;53.218;6.564;2022-10-16T13:35:56;101258.97;;;16.81;61.09
56456;BME280;42354;53.218;6.564;2022-10-16T13:38:26;101273.91;;;16.75;60.91
56456;BME280;42354;53.218;6.564;2022-10-16T13:41:03;101269.66;;;16.71;61.80
56456;BME280;42354;53.218;6.564;2022-10-16T13:43:39;101271.94;;;16.77;61.62
56456;BME280;42354;53.218;6.564;2022-10-16T13:46:11;101283.81;;;16.76;61.66
56456;BME280;42354;53.218;6.564;2022-10-16T13:48:37;101279.59;;;16.72;62.58
56456;BME280;42354;53.218;6.564;2022-10-16T13:51:12;101282.53;;;16.69;62.43
56456;BME280;42354;53.218;6.564;2022-10-16T13:53:38;101281.56;;;16.70;63.42
56456;BME280;42354;53.218;6.564;2022-10-16T13:56:07;101289.50;;;16.73;63.19
56456;BME280;42354;53.218;6.564;2022-10-16T13:58:36;101269.22;;;16.77;63.75
56456;BME280;42354;53.218;6.564;2022-10-16T14:01:04;101294.72;;;16.76;64.01
56456;BME280;42354;53.218;6.564;2022-10-16T14:03:32;101301.56;;;16.82;64.70
56456;BME280;42354;53.218;6.564;2022-10-16T14:06:01;101304.19;;;16.83;64.83
56456;BME280;42354;53.218;6.564;2022-10-16T14:08:29;101297.75;;;16.84;65.01
56456;BME280;42354;53.218;6.564;2022-10-16T14:11:00;101304.06;;;16.85;64.91
56456;BME280;42354;53.218;6.564;2022-10-16T14:13:53;101303.31;;;16.83;65.13
56456;BME280;42354;53.218;6.564;2022-10-16T14:16:21;101300.59;;;16.83;65.03
56456;BME280;42354;53.218;6.564;2022-10-16T14:19:03;101297.78;;;16.71;65.68
56456;BME280;42354;53.218;6.564;2022-10-16T14:21:31;101298.66;;;16.72;66.21
56456;BME280;42354;53.218;6.564;2022-10-16T14:23:57;101293.22;;;16.72;66.08
56456;BME280;42354;53.218;6.564;2022-10-16T14:26:25;101313.25;;;16.71;66.86